createdAt,value
2018-01-15T00:01:47.172Z,-1.40
2018-01-15T00:04:13.579Z,-1.40
2018-01-15T00:06:41.748Z,-1.50
2018-01-15T00:09:08.187Z,-1.50
2018-01-15T00:11:34.581Z,-1.40
2018-01-15T00:14:00.980Z,-1.40
2018-01-15T00:16:27.388Z,-1.40
2018-01-15T00:18:53.801Z,-1.40
2018-01-15T00:21:20.099Z,-1.40
2018-01-15T00:23:47.290Z,-1.40
2018-01-15T00:26:13.707Z,-1.40
2018-01-15T00:28:40.163Z,-1.40
2018-01-15T00:31:07.279Z,-1.40
2018-01-15T00:33:33.735Z,-1.40
2018-01-15T00:36:00.143Z,-1.40
2018-01-15T00:38:26.483Z,-1.40
2018-01-15T00:40:52.898Z,-1.40
2018-01-15T00:43:19.373Z,-1.50
2018-01-15T00:45:45.798Z,-1.50
2018-01-15T00:48:12.231Z,-1.50
2018-01-15T00:50:38.647Z,-1.50
2018-01-15T00:53:04.983Z,-1.40
2018-01-15T00:55:31.306Z,-1.30
2018-01-15T00:57:57.762Z,-1.40
2018-01-15T01:00:24.158Z,-1.40
2018-01-15T01:02:50.650Z,-1.40
2018-01-15T01:05:17.022Z,-1.40
2018-01-15T01:07:43.470Z,-1.30
2018-01-15T01:10:09.823Z,-1.30
2018-01-15T01:12:36.134Z,-1.30
2018-01-15T01:15:02.484Z,-1.30
2018-01-15T01:17:28.902Z,-1.30
2018-01-15T01:19:55.989Z,-1.30
2018-01-15T01:22:22.388Z,-1.30
2018-01-15T01:24:48.786Z,-1.30
2018-01-15T01:27:15.859Z,-1.30
2018-01-15T01:29:42.208Z,-1.30
2018-01-15T01:32:08.526Z,-1.30
2018-01-15T01:34:34.935Z,-1.30
2018-01-15T01:37:02.111Z,-1.30
2018-01-15T01:39:28.540Z,-1.30
2018-01-15T01:41:54.975Z,-1.30
2018-01-15T01:44:21.387Z,-1.30
2018-01-15T01:46:47.733Z,-1.20
2018-01-15T01:49:14.050Z,-1.20
2018-01-15T01:51:40.493Z,-1.20
2018-01-15T01:54:06.960Z,-1.20
2018-01-15T01:56:33.378Z,-1.20
2018-01-15T01:58:59.766Z,-1.20
2018-01-15T02:01:26.845Z,-1.20
2018-01-15T02:03:53.183Z,-1.30
2018-01-15T02:06:19.499Z,-1.20
2018-01-15T02:08:46.007Z,-1.20
2018-01-15T02:11:13.196Z,-1.20
2018-01-15T02:13:39.617Z,-1.20
2018-01-15T02:16:06.046Z,-1.20
2018-01-15T02:18:32.407Z,-1.10
2018-01-15T02:20:58.828Z,-1.10
2018-01-15T02:23:25.165Z,-1.10
2018-01-15T02:25:51.592Z,-1.20
2018-01-15T02:28:18.044Z,-1.10
2018-01-15T02:30:44.466Z,-1.20
2018-01-15T02:33:10.910Z,-1.10
2018-01-15T02:35:37.445Z,-1.20
2018-01-15T02:38:03.862Z,-1.10
2018-01-15T02:40:30.177Z,-1.20
2018-01-15T02:42:56.632Z,-1.20
2018-01-15T02:45:23.043Z,-1.20
2018-01-15T02:47:49.491Z,-1.20
2018-01-15T02:50:15.894Z,-1.20
2018-01-15T02:52:42.310Z,-1.20
2018-01-15T02:55:09.381Z,-1.20
2018-01-15T02:57:35.728Z,-1.20
2018-01-15T03:00:02.096Z,-1.20
2018-01-15T03:02:28.691Z,-1.20
2018-01-15T03:04:55.104Z,-1.20
2018-01-15T03:07:22.299Z,-1.20
2018-01-15T03:09:48.713Z,-1.20
2018-01-15T03:12:15.140Z,-1.20
2018-01-15T03:14:41.454Z,-1.20
2018-01-15T03:17:07.831Z,-1.20
2018-01-15T03:19:34.210Z,-1.20
2018-01-15T03:22:01.392Z,-1.20
2018-01-15T03:24:27.725Z,-1.20
2018-01-15T03:26:54.168Z,-1.20
2018-01-15T03:29:20.568Z,-1.10
2018-01-15T03:31:47.078Z,-1.10
2018-01-15T03:34:14.771Z,-1.10
2018-01-15T03:36:45.046Z,-1.10
2018-01-15T03:39:11.432Z,-1.10
2018-01-15T03:41:37.893Z,-1.10
2018-01-15T03:44:04.297Z,-1.10
2018-01-15T03:46:30.740Z,-1.00
2018-01-15T03:48:57.060Z,-1.00
2018-01-15T03:51:23.410Z,-1.00
2018-01-15T03:53:49.818Z,-1.00
2018-01-15T03:56:16.262Z,-1.00
2018-01-15T03:58:42.682Z,-1.00
2018-01-15T04:01:09.192Z,-1.00
2018-01-15T04:03:35.542Z,-1.10
2018-01-15T04:06:01.875Z,-1.10
2018-01-15T04:08:28.233Z,-1.10
2018-01-15T04:10:54.648Z,-1.10
2018-01-15T04:13:21.086Z,-1.10
2018-01-15T04:15:47.534Z,-1.00
2018-01-15T04:18:13.934Z,-0.90
2018-01-15T04:20:40.293Z,-0.90
2018-01-15T04:23:06.700Z,-0.90
2018-01-15T04:25:33.050Z,-0.90
2018-01-15T04:27:59.470Z,-0.90
2018-01-15T04:30:26.036Z,-0.90
2018-01-15T04:32:52.427Z,-0.80
2018-01-15T04:35:18.932Z,-0.90
2018-01-15T04:37:45.323Z,-0.90
2018-01-15T04:40:11.740Z,-0.80
2018-01-15T04:42:38.104Z,-0.90
2018-01-15T04:45:04.394Z,-0.90
2018-01-15T04:47:30.860Z,-0.90
2018-01-15T04:49:57.263Z,-0.90
2018-01-15T04:52:23.730Z,-0.90
2018-01-15T04:54:50.129Z,-0.90
2018-01-15T04:57:16.581Z,-0.90
2018-01-15T04:59:42.877Z,-0.90
2018-01-15T05:02:09.975Z,-0.90
2018-01-15T05:04:36.319Z,-0.90
2018-01-15T05:07:02.630Z,-0.90
2018-01-15T05:09:28.940Z,-1.00
2018-01-15T05:11:55.379Z,-0.90
2018-01-15T05:14:21.789Z,-0.90
2018-01-15T05:16:48.868Z,-1.00
2018-01-15T05:19:15.187Z,-1.00
2018-01-15T05:21:41.632Z,-1.00
2018-01-15T05:24:08.044Z,-1.00
2018-01-15T05:26:34.496Z,-1.00
2018-01-15T05:29:00.907Z,-1.00
2018-01-15T05:31:27.253Z,-1.00
2018-01-15T05:33:53.588Z,-1.00
2018-01-15T05:36:19.988Z,-0.90
2018-01-15T05:38:47.178Z,-1.00
2018-01-15T05:41:13.630Z,-1.00
2018-01-15T05:43:40.042Z,-1.00
2018-01-15T05:46:06.462Z,-1.00
2018-01-15T05:48:32.866Z,-1.00
2018-01-15T05:50:59.937Z,-1.00
2018-01-15T05:53:26.290Z,-1.00
2018-01-15T05:55:52.603Z,-1.10
2018-01-15T05:58:20.038Z,-1.00
2018-01-15T06:00:47.223Z,-1.00
2018-01-15T06:03:13.633Z,-1.10
2018-01-15T06:05:39.990Z,-1.00
2018-01-15T06:08:06.385Z,-0.90
2018-01-15T06:10:33.467Z,-0.90
2018-01-15T06:12:59.880Z,-0.90
2018-01-15T06:15:26.383Z,-0.80
2018-01-15T06:17:53.553Z,-0.80
2018-01-15T06:20:19.942Z,-0.80
2018-01-15T06:22:46.364Z,-0.70
2018-01-15T06:25:12.742Z,-0.70
2018-01-15T06:27:39.840Z,-0.60
2018-01-15T06:30:06.137Z,-0.50
2018-01-15T06:32:32.612Z,-0.60
2018-01-15T06:34:59.728Z,-0.60
2018-01-15T06:37:26.162Z,-0.60
2018-01-15T06:39:52.600Z,-0.60
2018-01-15T06:42:19.980Z,-0.60
2018-01-15T06:44:46.417Z,-0.60
2018-01-15T06:47:12.831Z,-0.60
2018-01-15T06:49:39.248Z,-0.50
2018-01-15T06:52:05.714Z,-0.50
2018-01-15T06:54:32.191Z,-0.40
2018-01-15T06:56:59.615Z,-0.30
2018-01-15T06:59:25.987Z,-0.30
2018-01-15T07:01:52.346Z,-0.20
2018-01-15T07:04:18.670Z,-0.10
2018-01-15T07:06:45.015Z,-0.10
2018-01-15T07:09:11.314Z,-0.20
2018-01-15T07:11:37.677Z,-0.20
2018-01-15T07:14:04.008Z,-0.10
2018-01-15T07:16:30.328Z,-0.10
2018-01-15T07:18:56.642Z,-0.10
2018-01-15T07:21:22.999Z,0.00
2018-01-15T07:23:49.290Z,0.10
2018-01-15T07:26:16.393Z,0.20
2018-01-15T07:28:42.716Z,0.20
2018-01-15T07:31:09.045Z,0.30
2018-01-15T07:33:35.347Z,0.40
2018-01-15T07:36:01.698Z,0.40
2018-01-15T07:38:28.010Z,0.50
2018-01-15T07:40:54.364Z,0.60
2018-01-15T07:43:20.675Z,0.60
2018-01-15T07:45:47.025Z,0.60
2018-01-15T07:48:13.338Z,0.60
2018-01-15T07:50:39.710Z,0.70
2018-01-15T07:53:05.987Z,0.80
2018-01-15T07:55:32.351Z,0.90
2018-01-15T07:57:58.760Z,0.90
2018-01-15T08:00:25.103Z,1.00
2018-01-15T08:02:51.523Z,1.10
2018-01-15T08:05:17.879Z,1.10
2018-01-15T08:07:44.182Z,1.20
2018-01-15T08:10:10.539Z,1.20
2018-01-15T08:12:36.827Z,1.20
2018-01-15T08:15:03.192Z,1.30
2018-01-15T08:17:29.508Z,1.20
2018-01-15T08:19:55.850Z,1.40
2018-01-15T08:22:22.155Z,1.50
2018-01-15T08:24:48.707Z,1.50
2018-01-15T08:27:15.038Z,1.60
2018-01-15T08:29:41.425Z,1.60
2018-01-15T08:32:08.504Z,1.60
2018-01-15T08:34:34.863Z,1.60
2018-01-15T08:37:01.158Z,1.70
2018-01-15T08:39:28.242Z,1.60
2018-01-15T08:41:54.559Z,1.60
2018-01-15T08:44:20.910Z,1.70
2018-01-15T08:46:47.207Z,1.80
2018-01-15T08:49:13.576Z,1.80
2018-01-15T08:51:39.874Z,1.90
2018-01-15T08:54:06.214Z,1.80
2018-01-15T08:56:32.528Z,1.90
2018-01-15T08:58:58.885Z,1.90
2018-01-15T09:01:25.186Z,2.00
2018-01-15T09:03:51.616Z,2.00
2018-01-15T09:06:18.680Z,2.10
2018-01-15T09:08:45.037Z,2.10
2018-01-15T09:11:11.343Z,2.10
2018-01-15T09:13:37.678Z,2.10
2018-01-15T09:16:03.997Z,2.20
2018-01-15T09:18:30.336Z,2.20
2018-01-15T09:20:56.660Z,2.30
2018-01-15T09:23:23.024Z,2.30
2018-01-15T09:25:49.298Z,2.40
2018-01-15T09:28:16.367Z,2.50
2018-01-15T09:30:42.719Z,2.50
2018-01-15T09:33:09.029Z,2.60
2018-01-15T09:35:35.367Z,2.70
2018-01-15T09:38:01.680Z,2.80
2018-01-15T09:40:28.768Z,3.00
2018-01-15T09:42:55.131Z,3.00
2018-01-15T09:45:21.498Z,3.20
2018-01-15T09:47:47.903Z,3.40
2018-01-15T09:50:15.000Z,3.40
2018-01-15T09:52:42.347Z,3.40
2018-01-15T09:55:08.782Z,3.50
2018-01-15T09:57:35.132Z,3.40
2018-01-15T10:00:01.422Z,3.50
2018-01-15T10:02:27.802Z,3.60
2018-01-15T10:04:54.080Z,3.60
2018-01-15T10:07:20.437Z,3.60
2018-01-15T10:09:46.805Z,3.70
2018-01-15T10:12:13.219Z,3.70
2018-01-15T10:14:39.500Z,3.80
2018-01-15T10:17:06.569Z,3.80
2018-01-15T10:19:32.890Z,3.70
2018-01-15T10:21:59.256Z,3.90
2018-01-15T10:24:25.564Z,3.90
2018-01-15T10:26:51.905Z,3.90
2018-01-15T10:29:18.184Z,3.90
2018-01-15T10:31:45.202Z,3.90
2018-01-15T10:34:11.571Z,3.90
2018-01-15T10:36:38.600Z,3.90
2018-01-15T10:39:04.870Z,3.90
2018-01-15T10:41:31.155Z,3.90
2018-01-15T10:43:57.430Z,3.80
2018-01-15T10:46:23.707Z,3.90
2018-01-15T10:48:49.982Z,3.90
2018-01-15T10:51:16.312Z,4.00
2018-01-15T10:53:42.649Z,4.00
2018-01-15T10:56:08.920Z,3.90
2018-01-15T10:58:36.057Z,4.00
2018-01-15T11:01:08.399Z,3.90
2018-01-15T11:03:34.752Z,4.00
2018-01-15T11:06:01.044Z,3.90
2018-01-15T11:08:28.092Z,4.00
2018-01-15T11:10:55.131Z,4.10
2018-01-15T11:13:22.153Z,4.10
2018-01-15T11:15:48.547Z,4.10
2018-01-15T11:18:14.865Z,4.10
2018-01-15T11:20:41.222Z,4.00
2018-01-15T11:23:07.637Z,4.10
2018-01-15T11:25:34.062Z,4.10
2018-01-15T11:28:00.932Z,4.10
2018-01-15T11:30:29.291Z,4.30
2018-01-15T11:32:55.615Z,4.30
2018-01-15T11:35:21.952Z,4.10
2018-01-15T11:37:48.258Z,4.20
2018-01-15T11:40:16.642Z,4.30
2018-01-15T11:42:42.916Z,4.30
2018-01-15T11:45:09.944Z,4.50
2018-01-15T11:47:36.190Z,4.50
2018-01-15T11:50:02.823Z,4.50
2018-01-15T11:52:29.091Z,4.60
2018-01-15T11:54:55.387Z,4.50
2018-01-15T11:57:21.748Z,4.60
2018-01-15T11:59:48.031Z,4.60
2018-01-15T12:02:14.304Z,4.60
2018-01-15T12:04:40.608Z,4.60
2018-01-15T12:07:06.884Z,4.70
2018-01-15T12:09:33.960Z,4.70
2018-01-15T12:12:00.226Z,4.70
2018-01-15T12:14:26.526Z,4.60
2018-01-15T12:16:52.772Z,4.50
2018-01-15T12:19:19.078Z,4.60
2018-01-15T12:21:45.403Z,4.70
2018-01-15T12:24:11.666Z,4.60
2018-01-15T12:26:37.963Z,4.70
2018-01-15T12:29:04.240Z,4.60
2018-01-15T12:31:30.521Z,4.70
2018-01-15T12:33:56.800Z,4.70
2018-01-15T12:36:23.125Z,4.70
2018-01-15T12:38:50.232Z,4.40
2018-01-15T12:41:16.540Z,4.40
2018-01-15T12:43:43.553Z,4.50
2018-01-15T12:46:09.856Z,4.50
2018-01-15T12:48:36.120Z,4.50
2018-01-15T12:51:02.410Z,4.60
2018-01-15T12:53:28.733Z,4.70
2018-01-15T12:55:55.066Z,4.60
2018-01-15T12:58:21.382Z,4.60
2018-01-15T13:00:47.684Z,4.60
2018-01-15T13:03:14.746Z,4.60
2018-01-15T13:05:48.570Z,4.60
2018-01-15T13:08:27.060Z,4.50
2018-01-15T13:10:54.087Z,4.60
2018-01-15T13:13:20.346Z,4.60
2018-01-15T13:15:46.679Z,4.60
2018-01-15T13:18:12.962Z,4.60
2018-01-15T13:20:39.244Z,4.70
2018-01-15T13:23:05.563Z,4.70
2018-01-15T13:25:32.596Z,4.80
2018-01-15T13:28:04.345Z,4.80
2018-01-15T13:30:30.638Z,4.80
2018-01-15T13:32:56.903Z,4.80
2018-01-15T13:35:23.960Z,4.80
2018-01-15T13:37:50.976Z,4.70
2018-01-15T13:40:18.246Z,4.70
2018-01-15T13:42:44.513Z,4.70
2018-01-15T13:45:10.824Z,4.70
2018-01-15T13:47:37.839Z,4.70
2018-01-15T13:50:04.137Z,4.70
2018-01-15T13:52:30.424Z,4.70
2018-01-15T13:54:56.732Z,4.60
2018-01-15T13:57:22.999Z,4.60
2018-01-15T13:59:50.027Z,4.60
2018-01-15T14:02:16.287Z,4.60
2018-01-15T14:07:34.616Z,4.60
2018-01-15T14:10:00.916Z,4.60
2018-01-15T14:12:27.195Z,4.60
2018-01-15T14:14:54.221Z,4.60
2018-01-15T14:17:20.512Z,4.60
2018-01-15T14:19:46.831Z,4.60
2018-01-15T14:22:13.161Z,4.60
2018-01-15T14:24:39.420Z,4.60
2018-01-15T14:27:05.732Z,4.50
2018-01-15T14:29:31.992Z,4.40
2018-01-15T14:31:58.274Z,4.40
2018-01-15T14:34:24.542Z,4.30
2018-01-15T14:36:50.831Z,4.30
2018-01-15T14:39:17.086Z,4.30
2018-01-15T14:41:43.366Z,4.20
2018-01-15T14:44:10.372Z,4.20
2018-01-15T14:46:36.681Z,4.10
2018-01-15T14:49:02.978Z,4.10
2018-01-15T14:51:29.294Z,4.10
2018-01-15T14:53:56.314Z,4.10
2018-01-15T14:56:22.591Z,4.10
2018-01-15T14:58:48.917Z,4.10
2018-01-15T15:01:15.197Z,4.10
2018-01-15T15:03:41.536Z,4.00
2018-01-15T15:06:07.775Z,4.00
2018-01-15T15:08:34.047Z,4.00
2018-01-15T15:11:00.322Z,4.10
2018-01-15T15:15:52.808Z,4.10
2018-01-15T15:18:19.834Z,4.10
2018-01-15T15:20:46.098Z,4.10
2018-01-15T15:23:12.367Z,4.20
2018-01-15T15:25:38.636Z,4.20
2018-01-15T15:28:05.698Z,4.20
2018-01-15T15:30:32.718Z,4.20
2018-01-15T15:32:59.033Z,4.20
2018-01-15T15:35:25.286Z,4.10
2018-01-15T15:37:51.596Z,4.20
2018-01-15T15:40:17.863Z,4.20
2018-01-15T15:42:44.937Z,4.20
2018-01-15T15:45:11.212Z,4.20
2018-01-15T15:47:37.609Z,4.30
2018-01-15T15:50:03.879Z,4.30
2018-01-15T15:52:30.158Z,4.30
2018-01-15T15:54:56.410Z,4.30
2018-01-15T15:57:23.779Z,4.20
2018-01-15T15:59:50.063Z,4.20
2018-01-15T16:02:16.368Z,4.20
2018-01-15T16:04:43.374Z,4.30
2018-01-15T16:07:09.684Z,4.30
2018-01-15T16:09:35.952Z,4.30
2018-01-15T16:12:02.244Z,4.30
2018-01-15T16:14:28.563Z,4.20
2018-01-15T16:16:54.836Z,4.20
2018-01-15T16:19:21.120Z,4.20
2018-01-15T16:21:59.813Z,4.30
2018-01-15T16:24:26.868Z,4.30
2018-01-15T16:26:53.896Z,4.30
2018-01-15T16:29:20.182Z,4.30
2018-01-15T16:31:46.515Z,4.30
2018-01-15T16:34:12.818Z,4.30
2018-01-15T16:36:39.118Z,4.30
2018-01-15T16:39:06.172Z,4.30
2018-01-15T16:41:48.130Z,4.30
2018-01-15T16:44:14.395Z,4.30
2018-01-15T16:46:41.436Z,4.30
2018-01-15T16:49:08.457Z,4.30
2018-01-15T16:51:35.489Z,4.30
2018-01-15T16:54:01.862Z,4.30
2018-01-15T16:56:28.618Z,4.30
2018-01-15T16:58:55.682Z,4.30
2018-01-15T17:01:21.968Z,4.20
2018-01-15T17:03:48.253Z,4.30
2018-01-15T17:06:14.545Z,4.30
2018-01-15T17:08:41.654Z,4.30
2018-01-15T17:11:07.972Z,4.30
2018-01-15T17:13:34.267Z,4.30
2018-01-15T17:16:01.275Z,4.30
2018-01-15T17:18:27.561Z,4.20
2018-01-15T17:20:53.884Z,4.30
2018-01-15T17:23:20.932Z,4.40
2018-01-15T17:25:47.263Z,4.30
2018-01-15T17:28:13.618Z,4.40
2018-01-15T17:30:39.899Z,4.40
2018-01-15T17:33:06.952Z,4.40
2018-01-15T17:35:33.976Z,4.40
2018-01-15T17:38:00.245Z,4.40
2018-01-15T17:40:26.506Z,4.40
2018-01-15T17:42:53.544Z,4.50
2018-01-15T17:45:19.818Z,4.40
2018-01-15T17:47:46.112Z,4.50
2018-01-15T17:50:12.449Z,4.40
2018-01-15T17:52:38.739Z,4.50
2018-01-15T17:55:04.997Z,4.40
2018-01-15T17:57:31.323Z,4.40
2018-01-15T17:59:57.640Z,4.50
2018-01-15T18:02:23.990Z,4.50
2018-01-15T18:04:50.270Z,4.40
2018-01-15T18:07:17.294Z,4.50
2018-01-15T18:09:44.424Z,4.50
2018-01-15T18:12:10.709Z,4.50
2018-01-15T18:14:37.722Z,4.60
2018-01-15T18:17:04.064Z,4.60
2018-01-15T18:19:31.082Z,4.60
2018-01-15T18:21:57.409Z,4.60
2018-01-15T18:24:23.736Z,4.60
2018-01-15T18:26:50.034Z,4.60
2018-01-15T18:29:16.312Z,4.70
2018-01-15T18:31:42.620Z,4.60
2018-01-15T18:34:08.905Z,4.60
2018-01-15T18:36:35.942Z,4.70
2018-01-15T18:39:03.011Z,4.60
2018-01-15T18:41:29.287Z,4.60
2018-01-15T18:43:55.572Z,4.70
2018-01-15T18:46:21.850Z,4.70
2018-01-15T18:48:48.133Z,4.60
2018-01-15T18:51:14.427Z,4.60
2018-01-15T18:53:40.704Z,4.70
2018-01-15T18:56:07.019Z,4.70
2018-01-15T18:58:33.322Z,4.70
2018-01-15T19:00:59.745Z,4.80
2018-01-15T19:03:26.010Z,4.70
2018-01-15T19:05:52.307Z,4.70
2018-01-15T19:08:18.577Z,4.70
2018-01-15T19:10:44.856Z,4.70
2018-01-15T19:13:11.164Z,4.70
2018-01-15T19:15:37.436Z,4.70
2018-01-15T19:18:04.054Z,4.70
2018-01-15T19:20:30.318Z,4.70
2018-01-15T19:22:57.348Z,4.80
2018-01-15T19:25:24.418Z,4.80
2018-01-15T19:27:50.754Z,4.80
2018-01-15T19:30:17.083Z,4.80
2018-01-15T19:32:43.382Z,4.80
2018-01-15T19:35:28.428Z,4.80
2018-01-15T19:37:54.719Z,4.80
2018-01-15T19:40:21.040Z,4.80
2018-01-15T19:42:47.623Z,4.90
2018-01-15T19:45:30.921Z,4.80
2018-01-15T19:48:03.337Z,4.70
2018-01-15T19:50:35.667Z,4.70
2018-01-15T19:53:08.269Z,4.70
2018-01-15T19:55:40.624Z,4.70
2018-01-15T19:58:12.902Z,4.70
2018-01-15T20:00:45.194Z,4.70
2018-01-15T20:03:17.615Z,4.70
2018-01-15T20:06:01.684Z,4.80
2018-01-15T20:08:34.807Z,4.80
2018-01-15T20:11:02.251Z,4.80
2018-01-15T20:13:29.319Z,4.80
2018-01-15T20:15:55.695Z,4.80
2018-01-15T20:18:21.972Z,4.80
2018-01-15T20:20:48.249Z,4.80
2018-01-15T20:23:14.544Z,4.80
2018-01-15T20:25:40.820Z,4.80
2018-01-15T20:28:07.091Z,4.90
2018-01-15T20:30:33.382Z,4.80
2018-01-15T20:33:00.017Z,4.80
2018-01-15T20:35:26.268Z,4.80
2018-01-15T20:37:52.555Z,4.80
2018-01-15T20:40:18.842Z,4.80
2018-01-15T20:42:45.162Z,4.80
2018-01-15T20:45:11.442Z,4.80
2018-01-15T20:47:38.485Z,4.80
2018-01-15T20:50:05.524Z,4.70
2018-01-15T20:52:32.559Z,4.70
2018-01-15T20:54:58.814Z,4.70
2018-01-15T20:57:25.940Z,4.60
2018-01-15T20:59:52.229Z,4.50
2018-01-15T21:02:18.518Z,4.50
2018-01-15T21:04:45.535Z,4.60
2018-01-15T21:07:11.814Z,4.50
2018-01-15T21:09:38.083Z,4.60
2018-01-15T21:12:04.367Z,4.60
2018-01-15T21:14:30.708Z,4.50
2018-01-15T21:16:56.996Z,4.50
2018-01-15T21:19:23.294Z,4.40
2018-01-15T21:21:49.615Z,4.40
2018-01-15T21:24:15.886Z,4.40
2018-01-15T21:26:42.158Z,4.40
2018-01-15T21:29:08.442Z,4.50
2018-01-15T21:31:34.719Z,4.50
2018-01-15T21:34:01.002Z,4.50
2018-01-15T21:36:28.036Z,4.50
2018-01-15T21:38:54.326Z,4.50
2018-01-15T21:41:20.629Z,4.50
2018-01-15T21:43:47.731Z,4.60
2018-01-15T21:46:14.024Z,4.60
2018-01-15T21:48:40.321Z,4.60
2018-01-15T21:51:06.582Z,4.60
2018-01-15T21:53:32.884Z,4.60
2018-01-15T21:55:59.891Z,4.60
2018-01-15T21:58:26.230Z,4.60
2018-01-15T22:00:52.520Z,4.70
2018-01-15T22:03:18.790Z,4.70
2018-01-15T22:05:45.807Z,4.70
2018-01-15T22:08:12.151Z,4.70
2018-01-15T22:10:38.426Z,4.70
2018-01-15T22:13:05.468Z,4.70
2018-01-15T22:15:31.738Z,4.60
2018-01-15T22:17:58.024Z,4.70
2018-01-15T22:20:24.271Z,4.60
2018-01-15T22:22:51.442Z,4.60
2018-01-15T22:25:17.711Z,4.60
2018-01-15T22:27:43.998Z,4.70
2018-01-15T22:30:10.282Z,4.70
2018-01-15T22:32:36.574Z,4.60
2018-01-15T22:35:02.905Z,4.60
2018-01-15T22:37:29.284Z,4.60
2018-01-15T22:39:55.578Z,4.70
2018-01-15T22:42:21.939Z,4.70
2018-01-15T22:44:48.300Z,4.70
2018-01-15T22:47:14.646Z,4.70
2018-01-15T22:49:40.931Z,4.70
2018-01-15T22:52:07.238Z,4.70
2018-01-15T22:54:33.554Z,4.70
2018-01-15T22:56:59.916Z,4.60
2018-01-15T22:59:26.230Z,4.60
2018-01-15T23:01:52.624Z,4.60
2018-01-15T23:04:18.938Z,4.60
2018-01-15T23:06:46.153Z,4.70
2018-01-15T23:09:12.540Z,4.70
2018-01-15T23:11:39.061Z,4.60
2018-01-15T23:14:06.236Z,4.70
2018-01-15T23:16:32.704Z,4.70
2018-01-15T23:18:59.114Z,4.80
2018-01-15T23:21:25.473Z,4.80
2018-01-15T23:23:52.632Z,4.90
2018-01-15T23:26:18.915Z,4.80
2018-01-15T23:28:45.252Z,4.90
2018-01-15T23:31:11.746Z,4.90
2018-01-15T23:33:38.780Z,5.00
2018-01-15T23:36:05.388Z,5.00
2018-01-15T23:38:31.771Z,5.00
2018-01-15T23:40:58.864Z,5.00
2018-01-15T23:43:25.151Z,5.00
2018-01-15T23:45:52.348Z,5.00
2018-01-15T23:48:18.997Z,5.00
2018-01-15T23:50:45.411Z,5.00
2018-01-15T23:53:11.862Z,5.00
2018-01-15T23:55:38.244Z,5.00
2018-01-15T23:58:04.745Z,5.00
